createdAt,value
2022-08-03T00:00:26.534Z,100812.25
2022-08-03T00:02:54.049Z,100815.81
2022-08-03T00:05:21.355Z,100813.38
2022-08-03T00:07:49.584Z,100815.97
2022-08-03T00:10:17.228Z,100807.06
2022-08-03T00:12:44.389Z,100811.50
2022-08-03T00:15:16.515Z,100813.25
2022-08-03T00:17:52.096Z,100812.66
2022-08-03T00:20:21.265Z,100806.19
2022-08-03T00:22:48.805Z,100813.50
2022-08-03T00:25:16.239Z,100814.63
2022-08-03T00:27:43.447Z,100818.22
2022-08-03T00:30:10.826Z,100821.34
2022-08-03T00:32:38.820Z,100815.19
2022-08-03T00:35:29.990Z,100819.38
2022-08-03T00:38:00.076Z,100808.56
2022-08-03T00:40:27.431Z,100817.72
2022-08-03T00:42:59.345Z,100817.00
2022-08-03T00:45:30.783Z,100811.19
2022-08-03T00:47:58.242Z,100812.34
2022-08-03T00:50:26.804Z,100810.19
2022-08-03T00:52:55.521Z,100814.28
2022-08-03T00:55:22.805Z,100813.34
2022-08-03T00:57:50.544Z,100809.72
2022-08-03T01:00:19.655Z,100808.84
2022-08-03T01:02:47.484Z,100804.16
2022-08-03T01:05:14.773Z,100806.25
2022-08-03T01:07:57.296Z,100816.06
2022-08-03T01:10:31.592Z,100805.81
2022-08-03T01:14:01.202Z,100806.81
2022-08-03T01:16:07.787Z,100807.91
2022-08-03T01:18:45.020Z,100807.31
2022-08-03T01:21:21.654Z,100797.28
2022-08-03T01:24:22.698Z,100794.81
2022-08-03T01:27:03.399Z,100796.06
2022-08-03T01:29:30.628Z,100793.47
2022-08-03T01:32:58.119Z,100794.75
2022-08-03T01:34:51.925Z,100800.91
2022-08-03T01:37:24.836Z,100811.59
2022-08-03T01:39:53.928Z,100800.91
2022-08-03T01:42:24.098Z,100799.31
2022-08-03T01:44:52.542Z,100792.66
2022-08-03T01:47:23.888Z,100795.34
2022-08-03T01:49:52.383Z,100787.03
2022-08-03T01:52:20.460Z,100788.44
2022-08-03T01:54:49.554Z,100789.28
2022-08-03T01:57:17.607Z,100784.94
2022-08-03T01:59:45.444Z,100785.09
2022-08-03T02:02:32.387Z,100791.84
2022-08-03T02:05:03.207Z,100788.59
2022-08-03T02:07:32.205Z,100778.56
2022-08-03T02:10:01.209Z,100788.09
2022-08-03T02:12:29.962Z,100787.22
2022-08-03T02:14:57.591Z,100788.44
2022-08-03T02:17:39.160Z,100792.78
2022-08-03T02:20:08.484Z,100785.72
2022-08-03T02:22:36.161Z,100781.03
2022-08-03T02:25:03.653Z,100781.78
2022-08-03T02:27:32.444Z,100786.25
2022-08-03T02:30:03.129Z,100779.13
2022-08-03T02:32:33.000Z,100785.78
2022-08-03T02:35:00.967Z,100779.22
2022-08-03T02:37:31.032Z,100771.28
2022-08-03T02:40:01.340Z,100765.72
2022-08-03T02:42:29.574Z,100773.91
2022-08-03T02:44:58.497Z,100770.59
2022-08-03T02:47:27.767Z,100776.06
2022-08-03T02:49:57.306Z,100766.53
2022-08-03T02:52:26.835Z,100768.03
2022-08-03T02:54:56.231Z,100769.63
2022-08-03T02:57:24.849Z,100772.69
2022-08-03T02:59:52.827Z,100769.00
2022-08-03T03:02:20.272Z,100762.28
2022-08-03T03:05:53.595Z,100768.63
2022-08-03T03:07:51.490Z,100773.66
2022-08-03T03:10:21.944Z,100768.09
2022-08-03T03:12:51.750Z,100770.81
2022-08-03T03:15:19.024Z,100772.91
2022-08-03T03:17:47.308Z,100775.41
2022-08-03T03:20:29.771Z,100778.38
2022-08-03T03:23:01.121Z,100780.50
2022-08-03T03:25:30.644Z,100774.56
2022-08-03T03:27:58.376Z,100772.09
2022-08-03T03:30:26.348Z,100772.59
2022-08-03T03:32:53.996Z,100770.38
2022-08-03T03:35:21.443Z,100772.97
2022-08-03T03:37:48.749Z,100771.13
2022-08-03T03:40:15.924Z,100769.53
2022-08-03T03:42:43.192Z,100776.53
2022-08-03T03:45:11.069Z,100777.28
2022-08-03T03:47:38.257Z,100780.25
2022-08-03T03:50:06.059Z,100779.13
2022-08-03T03:52:33.729Z,100778.88
2022-08-03T03:55:01.761Z,100778.16
2022-08-03T03:57:29.527Z,100779.63
2022-08-03T03:59:56.856Z,100774.31
2022-08-03T04:02:24.057Z,100776.41
2022-08-03T04:05:09.570Z,100777.28
2022-08-03T04:08:04.859Z,100777.19
2022-08-03T04:10:52.687Z,100775.94
2022-08-03T04:13:20.782Z,100783.72
2022-08-03T04:15:48.364Z,100778.28
2022-08-03T04:18:16.261Z,100786.72
2022-08-03T04:20:45.721Z,100781.38
2022-08-03T04:23:16.763Z,100780.97
2022-08-03T04:25:44.421Z,100784.94
2022-08-03T04:28:30.708Z,100784.69
2022-08-03T04:30:59.811Z,100788.50
2022-08-03T04:33:29.375Z,100791.78
2022-08-03T04:36:02.888Z,100795.56
2022-08-03T04:38:37.072Z,100801.38
2022-08-03T04:41:04.914Z,100802.88
2022-08-03T04:43:33.579Z,100809.31
2022-08-03T04:46:02.048Z,100805.22
2022-08-03T04:48:29.276Z,100807.66
2022-08-03T04:50:56.673Z,100804.59
2022-08-03T04:53:23.860Z,100809.19
2022-08-03T04:55:51.113Z,100809.53
2022-08-03T04:58:18.267Z,100818.06
2022-08-03T05:00:45.616Z,100820.44
2022-08-03T05:03:20.413Z,100813.53
2022-08-03T05:06:01.620Z,100815.63
2022-08-03T05:08:41.191Z,100819.06
2022-08-03T05:11:17.614Z,100814.50
2022-08-03T05:13:45.253Z,100812.78
2022-08-03T05:16:13.882Z,100819.69
2022-08-03T05:18:42.077Z,100813.75
2022-08-03T05:21:09.565Z,100818.47
2022-08-03T05:23:37.887Z,100811.28
2022-08-03T05:26:05.190Z,100813.72
2022-08-03T05:28:32.393Z,100816.19
2022-08-03T05:30:59.540Z,100814.16
2022-08-03T05:33:26.769Z,100817.69
2022-08-03T05:35:57.333Z,100819.09
2022-08-03T05:38:34.066Z,100822.41
2022-08-03T05:41:23.292Z,100827.81
2022-08-03T05:43:49.084Z,100824.94
2022-08-03T05:46:16.495Z,100818.34
2022-08-03T05:48:43.819Z,100816.25
2022-08-03T05:51:13.900Z,100813.78
2022-08-03T05:53:41.833Z,100817.38
2022-08-03T05:56:15.094Z,100821.47
2022-08-03T05:58:44.433Z,100816.53
2022-08-03T06:01:12.007Z,100821.34
2022-08-03T06:03:39.276Z,100823.41
2022-08-03T06:06:06.503Z,100819.97
2022-08-03T06:08:34.322Z,100824.56
2022-08-03T06:11:01.518Z,100832.75
2022-08-03T06:13:28.751Z,100832.19
2022-08-03T06:15:55.975Z,100834.31
2022-08-03T06:18:24.579Z,100846.69
2022-08-03T06:20:52.493Z,100842.72
2022-08-03T06:23:20.171Z,100851.06
2022-08-03T06:25:47.632Z,100846.75
2022-08-03T06:31:03.561Z,100856.19
2022-08-03T06:34:30.721Z,100856.97
2022-08-03T06:36:21.209Z,100857.00
2022-08-03T06:38:48.475Z,100859.75
2022-08-03T06:41:15.625Z,100862.38
2022-08-03T06:44:02.968Z,100866.97
2022-08-03T06:46:30.204Z,100861.97
2022-08-03T06:48:57.546Z,100863.44
2022-08-03T06:52:03.302Z,100873.38
2022-08-03T06:54:12.398Z,100862.59
2022-08-03T06:56:39.733Z,100868.06
2022-08-03T06:59:07.172Z,100873.66
2022-08-03T07:01:34.414Z,100874.84
2022-08-03T07:04:01.715Z,100880.16
2022-08-03T07:06:28.859Z,100881.16
2022-08-03T07:08:59.541Z,100876.72
2022-08-03T07:11:28.572Z,100874.41
2022-08-03T07:13:56.472Z,100869.47
2022-08-03T07:16:23.650Z,100874.34
2022-08-03T07:18:50.819Z,100873.59
2022-08-03T07:21:18.079Z,100879.34
2022-08-03T07:23:45.224Z,100881.31
2022-08-03T07:26:13.145Z,100874.22
2022-08-03T07:28:40.310Z,100868.56
2022-08-03T07:31:07.963Z,100873.22
2022-08-03T07:33:35.346Z,100870.59
2022-08-03T07:36:02.596Z,100870.66
2022-08-03T07:38:30.080Z,100869.19
2022-08-03T07:40:57.240Z,100869.34
2022-08-03T07:43:24.468Z,100867.56
2022-08-03T07:45:51.602Z,100872.47
2022-08-03T07:48:18.752Z,100878.63
2022-08-03T07:50:46.339Z,100873.44
2022-08-03T07:53:13.527Z,100874.88
2022-08-03T07:55:40.727Z,100880.75
2022-08-03T07:58:09.930Z,100878.78
2022-08-03T08:00:37.239Z,100880.38
2022-08-03T08:03:04.718Z,100886.28
2022-08-03T08:05:32.379Z,100877.22
2022-08-03T08:08:00.605Z,100879.16
2022-08-03T08:10:27.880Z,100872.69
2022-08-03T08:12:55.261Z,100873.34
2022-08-03T08:15:22.688Z,100878.13
2022-08-03T08:18:03.570Z,100875.31
2022-08-03T08:20:32.864Z,100867.75
2022-08-03T08:23:09.582Z,100873.84
2022-08-03T08:25:51.995Z,100879.81
2022-08-03T08:28:32.191Z,100876.06
2022-08-03T08:31:00.815Z,100888.47
2022-08-03T08:33:42.226Z,100875.38
2022-08-03T08:36:15.762Z,100872.06
2022-08-03T08:38:44.932Z,100867.13
2022-08-03T08:41:13.463Z,100861.47
2022-08-03T08:43:41.080Z,100872.34
2022-08-03T08:46:11.857Z,100869.94
2022-08-03T08:48:45.121Z,100876.06
2022-08-03T08:51:13.544Z,100870.81
2022-08-03T08:53:42.264Z,100872.63
2022-08-03T08:56:15.385Z,100864.59
2022-08-03T08:58:47.071Z,100871.84
2022-08-03T09:01:14.413Z,100863.31
2022-08-03T09:03:41.761Z,100871.03
2022-08-03T09:06:09.782Z,100872.81
2022-08-03T09:08:37.150Z,100870.47
2022-08-03T09:11:04.436Z,100871.31
2022-08-03T09:13:35.606Z,100869.47
2022-08-03T09:16:09.388Z,100878.03
2022-08-03T09:18:36.650Z,100876.66
2022-08-03T09:21:30.188Z,100872.53
2022-08-03T09:24:04.365Z,100860.47
2022-08-03T09:26:33.577Z,100859.28
2022-08-03T09:29:06.898Z,100865.22
2022-08-03T09:31:43.835Z,100854.88
2022-08-03T09:34:12.855Z,100862.63
2022-08-03T09:36:44.675Z,100872.31
2022-08-03T09:39:13.601Z,100861.47
2022-08-03T09:41:41.569Z,100861.84
2022-08-03T09:44:08.917Z,100847.84
2022-08-03T09:46:53.437Z,100850.97
2022-08-03T09:49:20.779Z,100845.97
2022-08-03T09:52:31.804Z,100855.44
2022-08-03T09:54:35.333Z,100849.28
2022-08-03T09:57:02.585Z,100853.81
2022-08-03T09:59:30.948Z,100853.97
2022-08-03T10:01:59.767Z,100845.84
2022-08-03T10:04:27.017Z,100844.63
2022-08-03T10:07:03.616Z,100849.47
2022-08-03T10:09:30.992Z,100838.16
2022-08-03T10:12:06.681Z,100834.50
2022-08-03T10:14:33.948Z,100830.72
2022-08-03T10:17:01.312Z,100833.63
2022-08-03T10:19:28.513Z,100841.00
2022-08-03T10:21:56.989Z,100829.78
2022-08-03T10:24:27.045Z,100827.06
2022-08-03T10:27:01.261Z,100825.53
2022-08-03T10:29:28.813Z,100824.38
2022-08-03T10:31:58.751Z,100818.19
2022-08-03T10:34:27.079Z,100822.44
2022-08-03T10:36:57.329Z,100818.84
2022-08-03T10:39:26.123Z,100814.22
2022-08-03T10:41:54.712Z,100811.06
2022-08-03T10:44:24.434Z,100802.81
2022-08-03T10:46:51.802Z,100800.72
2022-08-03T10:49:33.576Z,100797.28
2022-08-03T10:52:10.458Z,100790.94
2022-08-03T10:55:03.582Z,100794.16
2022-08-03T10:57:45.867Z,100799.50
2022-08-03T11:00:17.100Z,100788.09
2022-08-03T11:03:04.553Z,100790.34
2022-08-03T11:05:33.245Z,100788.75
2022-08-03T11:08:20.366Z,100793.88
2022-08-03T11:10:48.136Z,100788.22
2022-08-03T11:13:16.880Z,100787.81
2022-08-03T11:15:46.662Z,100781.94
2022-08-03T11:18:15.006Z,100782.31
2022-08-03T11:20:56.065Z,100786.81
2022-08-03T11:24:05.018Z,100780.25
2022-08-03T11:26:33.740Z,100779.88
2022-08-03T11:29:19.855Z,100774.03
2022-08-03T11:31:50.136Z,100775.56
2022-08-03T11:34:18.125Z,100778.00
2022-08-03T11:37:04.206Z,100770.34
2022-08-03T11:39:41.093Z,100769.16
2022-08-03T11:42:24.035Z,100758.09
2022-08-03T11:44:52.746Z,100761.53
2022-08-03T11:47:24.389Z,100769.28
2022-08-03T11:49:53.910Z,100767.91
2022-08-03T11:52:27.414Z,100756.38
2022-08-03T11:54:56.626Z,100763.13
2022-08-03T11:59:17.903Z,100751.63
2022-08-03T12:00:23.625Z,100755.94
2022-08-03T12:02:57.477Z,100746.13
2022-08-03T12:05:41.548Z,100747.28
2022-08-03T12:08:19.536Z,100747.09
2022-08-03T12:10:47.937Z,100739.63
2022-08-03T12:14:44.927Z,100741.59
2022-08-03T12:16:02.999Z,100733.03
2022-08-03T12:18:30.437Z,100739.34
2022-08-03T12:21:05.056Z,100736.28
2022-08-03T12:23:36.058Z,100737.06
2022-08-03T12:26:06.600Z,100741.72
2022-08-03T12:28:37.728Z,100743.78
2022-08-03T12:31:09.480Z,100739.16
2022-08-03T12:33:55.475Z,100737.25
2022-08-03T12:36:22.991Z,100737.59
2022-08-03T12:39:00.936Z,100739.16
2022-08-03T12:41:34.217Z,100737.94
2022-08-03T12:44:04.780Z,100737.75
2022-08-03T12:46:36.412Z,100737.50
2022-08-03T12:49:11.342Z,100730.38
2022-08-03T12:51:57.250Z,100733.13
2022-08-03T12:54:25.892Z,100722.69
2022-08-03T12:57:19.558Z,100732.72
2022-08-03T12:59:52.820Z,100733.69
2022-08-03T13:02:23.561Z,100732.28
2022-08-03T13:04:51.785Z,100731.22
2022-08-03T13:07:20.211Z,100731.53
2022-08-03T13:09:47.565Z,100720.47
2022-08-03T13:12:19.104Z,100722.59
2022-08-03T13:14:47.623Z,100719.69
2022-08-03T13:17:16.798Z,100717.97
2022-08-03T13:19:44.733Z,100716.38
2022-08-03T13:22:16.027Z,100721.91
2022-08-03T13:24:44.142Z,100719.25
2022-08-03T13:28:03.652Z,100716.13
2022-08-03T13:29:59.196Z,100715.69
2022-08-03T13:32:26.590Z,100713.84
2022-08-03T13:34:53.831Z,100706.06
2022-08-03T13:37:21.482Z,100711.78
2022-08-03T13:39:59.406Z,100707.84
2022-08-03T13:42:29.007Z,100702.16
2022-08-03T13:44:56.230Z,100703.47
2022-08-03T13:47:23.553Z,100695.03
2022-08-03T13:49:59.780Z,100698.06
2022-08-03T13:52:30.937Z,100693.59
2022-08-03T13:54:58.772Z,100688.00
2022-08-03T13:58:03.079Z,100688.69
2022-08-03T14:00:26.411Z,100674.47
2022-08-03T14:03:02.787Z,100670.84
2022-08-03T14:05:32.928Z,100673.06
2022-08-03T14:08:04.331Z,100670.50
2022-08-03T14:10:40.021Z,100677.91
2022-08-03T14:13:07.730Z,100666.38
2022-08-03T14:15:37.641Z,100670.97
2022-08-03T14:18:12.654Z,100660.19
2022-08-03T14:20:47.868Z,100660.00
2022-08-03T14:23:18.227Z,100660.88
2022-08-03T14:25:51.583Z,100655.97
2022-08-03T14:28:23.747Z,100653.00
2022-08-03T14:30:52.369Z,100648.38
2022-08-03T14:33:20.911Z,100644.94
2022-08-03T14:35:48.776Z,100652.16
2022-08-03T14:38:16.737Z,100654.25
2022-08-03T14:40:44.733Z,100647.88
2022-08-03T14:43:12.426Z,100644.28
2022-08-03T14:45:40.212Z,100642.63
2022-08-03T14:50:32.310Z,100639.66
2022-08-03T14:50:56.616Z,100631.97
2022-08-03T14:53:24.653Z,100629.88
2022-08-03T14:55:53.429Z,100630.56
2022-08-03T14:58:22.164Z,100621.25
2022-08-03T15:00:50.651Z,100622.44
2022-08-03T15:03:21.492Z,100626.38
2022-08-03T15:05:57.862Z,100626.91
2022-08-03T15:08:25.654Z,100614.25
2022-08-03T15:10:56.514Z,100623.53
2022-08-03T15:13:25.311Z,100616.59
2022-08-03T15:15:52.617Z,100610.00
2022-08-03T15:18:20.794Z,100620.81
2022-08-03T15:20:50.578Z,100599.63
2022-08-03T15:23:18.515Z,100602.72
2022-08-03T15:26:29.553Z,100599.50
2022-08-03T15:28:34.066Z,100606.59
2022-08-03T15:31:01.812Z,100594.91
2022-08-03T15:33:29.381Z,100593.88
2022-08-03T15:35:57.047Z,100599.50
2022-08-03T15:38:25.966Z,100597.53
2022-08-03T15:40:56.957Z,100591.16
2022-08-03T15:43:24.742Z,100595.13
2022-08-03T15:46:26.535Z,100585.16
2022-08-03T15:48:39.947Z,100587.81
2022-08-03T15:51:08.073Z,100585.59
2022-08-03T15:53:35.420Z,100571.72
2022-08-03T15:56:09.417Z,100575.22
2022-08-03T15:59:04.578Z,100571.41
2022-08-03T16:01:27.044Z,100578.44
2022-08-03T16:03:54.446Z,100581.88
2022-08-03T16:06:29.564Z,100576.19
2022-08-03T16:09:05.524Z,100567.94
2022-08-03T16:11:50.768Z,100568.47
2022-08-03T16:14:32.495Z,100560.78
2022-08-03T16:17:03.675Z,100566.47
2022-08-03T16:19:31.111Z,100553.72
2022-08-03T16:21:58.433Z,100557.88
2022-08-03T16:24:27.704Z,100560.84
2022-08-03T16:26:56.305Z,100563.41
2022-08-03T16:29:24.106Z,100561.97
2022-08-03T16:31:52.443Z,100559.06
2022-08-03T16:34:20.324Z,100553.84
2022-08-03T16:36:47.817Z,100553.34
2022-08-03T16:39:15.424Z,100556.31
2022-08-03T16:41:54.142Z,100549.75
2022-08-03T16:44:30.147Z,100556.13
2022-08-03T16:46:58.722Z,100550.94
2022-08-03T16:49:54.564Z,100554.56
2022-08-03T16:52:16.723Z,100547.34
2022-08-03T16:54:53.834Z,100554.09
2022-08-03T16:57:55.660Z,100553.22
2022-08-03T17:00:10.412Z,100548.63
2022-08-03T17:02:38.016Z,100547.13
2022-08-03T17:05:05.499Z,100545.03
2022-08-03T17:07:32.741Z,100549.03
2022-08-03T17:10:01.028Z,100548.53
2022-08-03T17:12:28.710Z,100545.06
2022-08-03T17:14:57.492Z,100551.78
2022-08-03T17:17:30.043Z,100547.72
2022-08-03T17:20:11.672Z,100554.25
2022-08-03T17:22:46.117Z,100551.00
2022-08-03T17:25:21.859Z,100549.66
2022-08-03T17:28:50.422Z,100558.25
2022-08-03T17:31:22.864Z,100553.97
2022-08-03T17:33:56.371Z,100559.00
2022-08-03T17:36:41.884Z,100565.56
2022-08-03T17:39:15.179Z,100565.22
2022-08-03T17:41:49.889Z,100561.81
2022-08-03T17:44:33.045Z,100565.13
2022-08-03T17:47:06.521Z,100567.16
2022-08-03T17:49:40.142Z,100566.69
2022-08-03T17:52:17.290Z,100574.47
2022-08-03T17:55:06.909Z,100568.25
2022-08-03T17:58:02.406Z,100567.56
2022-08-03T18:02:00.528Z,100573.59
2022-08-03T18:04:02.752Z,100582.56
2022-08-03T18:06:38.916Z,100582.06
2022-08-03T18:10:06.095Z,100580.69
2022-08-03T18:12:23.061Z,100576.59
2022-08-03T18:14:57.579Z,100576.78
2022-08-03T18:17:54.959Z,100580.06
2022-08-03T18:20:28.074Z,100578.03
2022-08-03T18:23:04.814Z,100580.81
2022-08-03T18:25:38.310Z,100576.50
2022-08-03T18:28:11.849Z,100577.53
2022-08-03T18:30:53.603Z,100581.69
2022-08-03T18:34:18.952Z,100579.97
2022-08-03T18:36:11.123Z,100579.63
2022-08-03T18:38:46.519Z,100582.69
2022-08-03T18:41:20.555Z,100589.22
2022-08-03T18:44:08.394Z,100583.38
2022-08-03T18:47:07.388Z,100583.06
2022-08-03T18:49:57.242Z,100578.06
2022-08-03T18:52:34.790Z,100584.13
2022-08-03T18:55:12.522Z,100583.59
2022-08-03T18:57:47.330Z,100583.25
2022-08-03T19:00:17.040Z,100587.91
2022-08-03T19:02:49.029Z,100590.16
2022-08-03T19:05:18.338Z,100602.31
2022-08-03T19:10:37.936Z,100595.13
2022-08-03T19:13:14.048Z,100594.25
2022-08-03T19:15:51.270Z,100603.03
2022-08-03T19:18:28.202Z,100604.38
2022-08-03T19:20:56.201Z,100602.69
2022-08-03T19:23:25.184Z,100606.28
2022-08-03T19:25:53.687Z,100607.50
2022-08-03T19:28:29.801Z,100607.66
2022-08-03T19:31:00.237Z,100607.84
2022-08-03T19:33:31.229Z,100610.41
2022-08-03T19:36:19.100Z,100613.16
2022-08-03T19:38:54.735Z,100623.97
2022-08-03T19:41:24.344Z,100618.47
2022-08-03T19:43:58.260Z,100623.63
2022-08-03T19:49:15.969Z,100624.97
2022-08-03T19:52:02.215Z,100626.84
2022-08-03T19:54:52.989Z,100635.31
2022-08-03T19:57:23.588Z,100636.69
2022-08-03T19:59:53.159Z,100630.81
2022-08-03T20:02:26.458Z,100642.84
2022-08-03T20:05:00.008Z,100644.53
2022-08-03T20:07:28.988Z,100646.41
2022-08-03T20:09:59.624Z,100649.97
2022-08-03T20:12:29.436Z,100649.78
2022-08-03T20:14:57.664Z,100647.56
2022-08-03T20:17:54.362Z,100644.97
2022-08-03T20:20:13.516Z,100646.66
2022-08-03T20:22:45.532Z,100650.44
2022-08-03T20:25:16.289Z,100652.16
2022-08-03T20:28:08.077Z,100652.69
2022-08-03T20:30:39.047Z,100655.41
2022-08-03T20:33:09.966Z,100656.41
2022-08-03T20:35:37.190Z,100650.94
2022-08-03T20:38:04.430Z,100655.56
2022-08-03T20:40:32.251Z,100653.84
2022-08-03T20:42:59.835Z,100651.44
2022-08-03T20:46:01.077Z,100646.25
2022-08-03T20:48:17.312Z,100655.53
2022-08-03T20:50:49.607Z,100655.31
2022-08-03T20:53:31.162Z,100655.19
2022-08-03T20:56:04.737Z,100662.06
2022-08-03T20:58:32.689Z,100670.53
2022-08-03T21:01:00.832Z,100662.81
2022-08-03T21:03:40.567Z,100658.16
2022-08-03T21:06:10.037Z,100661.91
2022-08-03T21:08:39.308Z,100666.22
2022-08-03T21:11:16.698Z,100669.31
2022-08-03T21:13:02.898Z,100621.53
2022-08-03T21:13:09.487Z,100592.72
2022-08-03T21:13:56.023Z,100662.06
2022-08-03T21:16:26.895Z,100671.16
2022-08-03T21:18:55.392Z,100674.41
2022-08-03T21:21:23.708Z,100671.44
2022-08-03T21:23:57.725Z,100671.91
2022-08-03T21:26:26.027Z,100669.47
2022-08-03T21:28:54.510Z,100667.88
2022-08-03T21:31:25.680Z,100672.31
2022-08-03T21:33:55.152Z,100679.97
2022-08-03T21:36:22.425Z,100681.22
2022-08-03T21:38:56.100Z,100683.88
2022-08-03T21:41:28.579Z,100685.56
2022-08-03T21:43:55.828Z,100678.84
2022-08-03T21:46:23.729Z,100693.25
2022-08-03T21:48:54.216Z,100694.25
2022-08-03T21:51:23.805Z,100694.59
2022-08-03T21:54:03.586Z,100699.28
2022-08-03T21:56:41.269Z,100696.72
2022-08-03T21:59:15.099Z,100691.41
2022-08-03T22:01:42.692Z,100689.69
2022-08-03T22:04:24.062Z,100697.78
2022-08-03T22:06:58.544Z,100703.13
2022-08-03T22:09:25.783Z,100704.84
2022-08-03T22:11:54.200Z,100700.41
2022-08-03T22:14:21.620Z,100713.88
2022-08-03T22:16:49.175Z,100705.91
2022-08-03T22:19:18.985Z,100707.22
2022-08-03T22:21:48.110Z,100708.22
2022-08-03T22:24:16.312Z,100709.78
2022-08-03T22:27:04.414Z,100717.34
2022-08-03T22:29:32.738Z,100716.56
2022-08-03T22:32:00.253Z,100713.19
2022-08-03T22:34:28.460Z,100722.88
2022-08-03T22:36:57.184Z,100722.94
2022-08-03T22:39:28.823Z,100726.16
2022-08-03T22:41:59.925Z,100727.19
2022-08-03T22:44:27.826Z,100730.19
2022-08-03T22:46:55.964Z,100738.72
2022-08-03T22:49:23.945Z,100731.44
2022-08-03T22:51:51.924Z,100730.19
2022-08-03T22:54:19.254Z,100734.97
2022-08-03T22:56:47.014Z,100735.13
2022-08-03T22:59:38.949Z,100735.19
2022-08-03T23:02:20.531Z,100740.41
2022-08-03T23:04:55.047Z,100738.72
2022-08-03T23:07:28.425Z,100746.97
2022-08-03T23:09:56.265Z,100738.06
2022-08-03T23:12:23.719Z,100741.09
2022-08-03T23:14:59.902Z,100748.16
2022-08-03T23:17:28.944Z,100748.91
2022-08-03T23:20:01.369Z,100742.41
2022-08-03T23:22:30.253Z,100750.06
2022-08-03T23:24:58.745Z,100751.38
2022-08-03T23:27:27.073Z,100749.75
2022-08-03T23:29:54.283Z,100744.91
2022-08-03T23:32:21.474Z,100747.78
2022-08-03T23:35:07.759Z,100745.31
2022-08-03T23:38:04.219Z,100743.59
2022-08-03T23:40:24.546Z,100743.44
2022-08-03T23:42:52.039Z,100744.28
2022-08-03T23:45:19.854Z,100746.00
2022-08-03T23:47:48.012Z,100743.91
2022-08-03T23:50:15.236Z,100740.13
2022-08-03T23:52:50.280Z,100744.31
2022-08-03T23:55:32.428Z,100740.88
2022-08-03T23:58:12.108Z,100740.47
